Time;durP1;ratioP1;P1;durP2;ratioP2;P2;SDS_P1;SDS_P2;PMS_P1;PMS_P2;Temp;Humidity;BMP_temperature;BMP_pressure;BME280_temperature;BME280_humidity;BME280_pressure;Samples;Min_cycle;Max_cycle;Signal;HPM_P1;HPM_P2
2023/08/25 00:00:37;;;;;;;8.98;6.25;;;19.50;99.90;;;;;;5060519;28;20052;-36
2023/08/25 00:03:04;;;;;;;9.15;6.55;;;19.50;99.90;;;;;;5045072;28;20041;-36
2023/08/25 00:05:29;;;;;;;9.50;6.80;;;19.40;99.90;;;;;;5058582;28;20101;-36
2023/08/25 00:07:55;;;;;;;9.63;6.47;;;19.40;99.90;;;;;;5076570;28;20041;-36
2023/08/25 00:10:22;;;;;;;7.47;5.10;;;19.40;99.90;;;;;;5061800;28;20063;-36
2023/08/25 00:12:49;;;;;;;7.85;5.95;;;19.50;99.90;;;;;;5060361;28;20056;-36
2023/08/25 00:15:14;;;;;;;7.80;6.10;;;19.50;99.90;;;;;;5061133;28;20067;-36
2023/08/25 00:17:40;;;;;;;8.55;5.88;;;19.40;99.90;;;;;;5057369;28;20430;-35
2023/08/25 00:20:10;;;;;;;7.95;5.82;;;19.50;99.90;;;;;;5061165;28;20083;-36
2023/08/25 00:22:36;;;;;;;8.23;6.57;;;19.50;99.90;;;;;;5057838;28;20388;-36
2023/08/25 00:25:03;;;;;;;11.07;7.82;;;19.40;99.90;;;;;;5042168;28;20094;-36
2023/08/25 00:27:28;;;;;;;10.55;7.95;;;19.40;99.90;;;;;;5057116;28;20049;-35
2023/08/25 00:29:54;;;;;;;9.88;7.13;;;19.30;99.90;;;;;;5055261;28;20053;-37
2023/08/25 00:32:20;;;;;;;8.25;6.93;;;19.30;99.90;;;;;;5060098;28;21168;-36
2023/08/25 00:34:45;;;;;;;9.02;7.00;;;19.30;99.90;;;;;;5055386;28;20057;-36
2023/08/25 00:37:11;;;;;;;9.27;7.00;;;19.30;99.90;;;;;;5043695;28;20037;-36
2023/08/25 00:39:38;;;;;;;9.95;6.95;;;19.40;99.90;;;;;;5048948;28;20052;-36
2023/08/25 00:42:04;;;;;;;10.55;7.38;;;19.40;99.90;;;;;;5051848;28;20052;-36
2023/08/25 00:44:30;;;;;;;11.00;8.40;;;19.40;99.90;;;;;;5040980;28;20087;-36
2023/08/25 00:46:56;;;;;;;10.93;7.55;;;19.40;99.90;;;;;;5038897;28;20191;-36
2023/08/25 00:49:23;;;;;;;11.65;8.30;;;19.40;99.90;;;;;;5054392;28;20397;-36
2023/08/25 00:51:51;;;;;;;12.80;8.32;;;19.50;99.90;;;;;;5053267;28;20606;-36
2023/08/25 00:54:18;;;;;;;11.15;7.35;;;19.40;99.90;;;;;;5062518;28;20048;-36
2023/08/25 00:56:45;;;;;;;10.07;7.47;;;19.40;99.90;;;;;;5059563;28;20051;-36
2023/08/25 00:59:10;;;;;;;9.85;7.30;;;19.50;99.90;;;;;;5059857;28;20384;-36
2023/08/25 01:01:36;;;;;;;9.93;7.30;;;19.50;99.90;;;;;;5062423;28;20714;-36
2023/08/25 01:04:03;;;;;;;11.07;8.25;;;19.50;99.90;;;;;;5065436;28;20123;-35
2023/08/25 01:06:28;;;;;;;9.48;7.85;;;19.60;99.90;;;;;;5049483;28;20059;-36
2023/08/25 01:08:54;;;;;;;11.25;8.93;;;19.50;99.90;;;;;;5057803;28;20053;-35
2023/08/25 01:12:09;;;;;;;16.75;9.25;;;19.50;99.90;;;;;;5058882;28;20417;-36
2023/08/25 01:14:44;;;;;;;10.27;7.15;;;19.60;99.90;;;;;;5049984;28;20052;-36
2023/08/25 01:17:13;;;;;;;18.77;10.30;;;19.50;99.90;;;;;;5064811;28;20131;-36
2023/08/25 01:19:48;;;;;;;11.45;9.27;;;19.50;99.90;;;;;;5059153;28;20060;-36
2023/08/25 01:22:19;;;;;;;14.38;9.60;;;19.60;99.90;;;;;;5051577;28;20045;-36
2023/08/25 01:24:48;;;;;;;15.82;10.63;;;19.60;99.90;;;;;;5055962;28;20048;-36
2023/08/25 01:27:14;;;;;;;12.88;9.73;;;19.60;99.90;;;;;;5058452;28;20055;-35
2023/08/25 01:29:43;;;;;;;12.90;9.00;;;19.60;99.90;;;;;;5046851;28;20460;-37
2023/08/25 01:32:09;;;;;;;12.70;9.75;;;19.60;99.90;;;;;;5037273;28;20060;-37
2023/08/25 01:34:36;;;;;;;12.65;9.88;;;19.60;99.90;;;;;;5039161;28;20052;-35
2023/08/25 01:37:18;;;;;;;14.00;9.48;;;19.60;99.90;;;;;;5053849;28;20048;-36
2023/08/25 01:39:48;;;;;;;13.80;10.25;;;19.60;99.90;;;;;;5057348;28;20126;-34
2023/08/25 01:42:15;;;;;;;13.00;8.40;;;19.50;99.90;;;;;;5049300;28;20130;-35
2023/08/25 01:44:43;;;;;;;11.95;9.65;;;19.50;99.90;;;;;;5048535;28;20145;-35
2023/08/25 01:47:10;;;;;;;12.52;9.43;;;19.50;99.90;;;;;;5054487;28;20076;-35
2023/08/25 01:49:37;;;;;;;14.23;9.32;;;19.50;99.90;;;;;;5055940;28;20075;-35
2023/08/25 01:52:04;;;;;;;12.77;9.48;;;19.40;99.90;;;;;;5055007;28;20044;-35
2023/08/25 01:54:30;;;;;;;14.65;10.85;;;19.50;99.90;;;;;;5049691;28;20514;-35
2023/08/25 01:56:56;;;;;;;11.45;9.25;;;19.50;99.90;;;;;;5056898;28;20063;-35
2023/08/25 01:59:21;;;;;;;14.82;10.65;;;19.50;99.90;;;;;;5056850;28;20040;-35
2023/08/25 02:01:47;;;;;;;10.93;9.00;;;19.50;99.90;;;;;;5071270;28;20756;-35
2023/08/25 02:04:13;;;;;;;14.32;11.30;;;19.50;99.90;;;;;;5056175;28;20135;-36
2023/08/25 02:06:38;;;;;;;19.65;10.70;;;19.50;99.90;;;;;;5058514;28;20098;-35
2023/08/25 02:09:04;;;;;;;14.07;9.57;;;19.50;99.90;;;;;;5058261;28;20044;-35
2023/08/25 02:11:30;;;;;;;13.88;10.32;;;19.40;99.90;;;;;;5058098;28;20492;-37
2023/08/25 02:13:55;;;;;;;14.27;9.25;;;19.40;99.90;;;;;;5059243;28;20068;-36
2023/08/25 02:16:21;;;;;;;11.95;9.02;;;19.40;99.90;;;;;;5055643;28;20060;-36
2023/08/25 02:18:47;;;;;;;13.23;10.10;;;19.40;99.90;;;;;;5057168;28;20448;-36
2023/08/25 02:21:13;;;;;;;13.68;9.63;;;19.30;99.90;;;;;;5054193;28;20133;-35
2023/08/25 02:23:40;;;;;;;13.88;9.57;;;19.30;99.90;;;;;;5061592;28;20049;-36
2023/08/25 02:26:05;;;;;;;13.52;10.73;;;19.20;99.90;;;;;;5066728;28;20048;-36
2023/08/25 02:28:31;;;;;;;13.40;9.77;;;19.20;99.90;;;;;;5060080;28;20056;-36
2023/08/25 02:30:56;;;;;;;18.95;11.20;;;19.20;99.90;;;;;;5062078;28;20049;-36
2023/08/25 02:33:22;;;;;;;15.15;10.40;;;19.20;99.90;;;;;;5061753;28;20114;-36
2023/08/25 02:35:48;;;;;;;16.35;11.07;;;19.10;99.90;;;;;;5060375;28;20410;-36
2023/08/25 02:38:13;;;;;;;15.32;11.13;;;19.10;99.90;;;;;;5047144;28;20402;-36
2023/08/25 02:40:39;;;;;;;13.48;10.65;;;19.10;99.90;;;;;;5064247;28;20048;-36
2023/08/25 02:43:06;;;;;;;12.10;9.93;;;19.10;99.90;;;;;;5066785;28;20056;-36
2023/08/25 02:45:33;;;;;;;16.70;11.93;;;19.10;99.90;;;;;;5055802;28;21792;-36
2023/08/25 02:47:59;;;;;;;16.25;12.30;;;19.00;99.90;;;;;;5038196;28;20122;-36
2023/08/25 02:50:25;;;;;;;17.88;11.23;;;19.00;99.90;;;;;;5038964;28;20515;-35
2023/08/25 02:52:50;;;;;;;15.77;11.48;;;19.00;99.90;;;;;;5041376;28;20612;-36
2023/08/25 02:55:19;;;;;;;18.08;11.82;;;19.00;99.90;;;;;;5060463;28;20515;-36
2023/08/25 02:57:46;;;;;;;21.10;12.52;;;18.90;99.90;;;;;;5061188;28;20131;-36
2023/08/25 03:00:13;;;;;;;17.48;12.88;;;18.90;99.90;;;;;;5062675;28;20062;-36
2023/08/25 03:02:39;;;;;;;16.75;12.65;;;18.80;99.90;;;;;;5060490;28;20722;-37
2023/08/25 03:05:06;;;;;;;19.63;13.13;;;18.80;99.90;;;;;;5059927;28;20051;-36
2023/08/25 03:07:33;;;;;;;20.77;13.70;;;18.80;99.90;;;;;;5061143;28;20465;-36
2023/08/25 03:09:59;;;;;;;18.70;13.23;;;18.70;99.90;;;;;;5053063;28;20048;-37
2023/08/25 03:12:26;;;;;;;15.82;12.30;;;18.70;99.90;;;;;;5059412;28;20056;-36
2023/08/25 03:14:53;;;;;;;18.35;14.30;;;18.70;99.90;;;;;;5057158;28;20070;-35
2023/08/25 03:17:18;;;;;;;17.10;12.50;;;18.70;99.90;;;;;;5054570;28;20066;-35
2023/08/25 03:19:44;;;;;;;22.15;13.57;;;18.60;99.90;;;;;;5057034;28;20053;-35
2023/08/25 03:22:09;;;;;;;17.02;13.18;;;18.60;99.90;;;;;;5059348;28;20076;-35
2023/08/25 03:24:35;;;;;;;21.58;13.93;;;18.60;99.90;;;;;;5060675;28;20055;-36
2023/08/25 03:27:01;;;;;;;19.02;14.68;;;18.60;99.90;;;;;;5064359;28;20052;-36
2023/08/25 03:29:26;;;;;;;16.40;11.20;;;18.60;99.90;;;;;;5065961;28;20044;-36
2023/08/25 03:31:52;;;;;;;19.27;12.52;;;18.60;99.90;;;;;;5067431;28;20083;-35
2023/08/25 03:34:18;;;;;;;17.58;13.68;;;18.50;99.90;;;;;;5065526;28;20143;-35
2023/08/25 03:36:46;;;;;;;18.08;13.85;;;18.50;99.90;;;;;;5057447;28;20383;-35
2023/08/25 03:39:13;;;;;;;17.77;11.82;;;18.50;99.90;;;;;;5060206;28;20482;-36
2023/08/25 03:41:38;;;;;;;16.65;12.63;;;18.40;99.90;;;;;;5051688;28;20059;-35
2023/08/25 03:44:04;;;;;;;17.45;12.30;;;18.40;99.90;;;;;;5047273;28;20052;-34
2023/08/25 03:46:31;;;;;;;14.02;11.75;;;18.40;99.90;;;;;;5057634;28;20166;-35
2023/08/25 03:48:57;;;;;;;15.55;12.70;;;18.40;99.90;;;;;;5057960;28;20140;-36
2023/08/25 03:51:23;;;;;;;17.55;13.02;;;18.40;99.90;;;;;;5053091;28;20057;-35
2023/08/25 03:53:49;;;;;;;16.95;12.50;;;18.40;99.90;;;;;;5057443;28;20052;-35
2023/08/25 03:56:14;;;;;;;15.57;11.98;;;18.40;99.90;;;;;;5061014;28;20059;-35
2023/08/25 03:58:40;;;;;;;17.98;13.32;;;18.30;99.90;;;;;;5061698;28;20098;-35
2023/08/25 04:01:06;;;;;;;16.35;12.30;;;18.30;99.90;;;;;;5060114;28;20045;-35
2023/08/25 04:03:31;;;;;;;17.67;12.95;;;18.30;99.90;;;;;;5043413;28;20061;-35
2023/08/25 04:05:57;;;;;;;17.58;13.02;;;18.30;99.90;;;;;;5042930;28;20173;-35
2023/08/25 04:08:23;;;;;;;13.40;9.93;;;18.30;99.90;;;;;;5053368;28;20128;-35
2023/08/25 04:10:48;;;;;;;13.98;11.02;;;18.30;99.90;;;;;;5059531;28;20569;-34
2023/08/25 04:13:14;;;;;;;16.08;13.25;;;18.30;99.90;;;;;;5060605;28;20098;-35
2023/08/25 04:15:40;;;;;;;15.52;12.13;;;18.30;99.90;;;;;;5051991;28;20061;-35
2023/08/25 04:18:06;;;;;;;19.42;13.75;;;18.30;99.90;;;;;;5051565;28;20044;-35
2023/08/25 04:20:32;;;;;;;14.55;11.25;;;18.20;99.90;;;;;;5063174;28;20052;-35
2023/08/25 04:23:01;;;;;;;16.00;11.68;;;18.30;99.90;;;;;;5060102;28;20052;-35
2023/08/25 04:25:29;;;;;;;15.50;11.20;;;18.30;99.90;;;;;;5047150;28;20435;-35
2023/08/25 04:27:54;;;;;;;18.88;12.60;;;18.20;99.90;;;;;;5056647;28;20059;-35
2023/08/25 04:30:22;;;;;;;19.63;11.80;;;18.20;99.90;;;;;;5054419;28;20044;-35
2023/08/25 04:32:49;;;;;;;19.55;12.85;;;18.20;99.90;;;;;;5068000;28;20052;-35
2023/08/25 04:35:15;;;;;;;25.35;15.50;;;18.10;99.90;;;;;;5062511;28;20053;-35
2023/08/25 04:37:44;;;;;;;16.33;10.60;;;18.10;99.90;;;;;;5060032;28;20064;-35
2023/08/25 04:40:09;;;;;;;18.77;12.45;;;18.10;99.90;;;;;;5067780;28;20045;-36
2023/08/25 04:42:35;;;;;;;15.48;11.57;;;18.00;99.90;;;;;;5057541;28;20056;-35
2023/08/25 04:45:04;;;;;;;16.40;13.10;;;18.00;99.90;;;;;;5049101;28;20101;-35
2023/08/25 04:47:30;;;;;;;20.10;14.38;;;18.00;99.90;;;;;;5055685;28;20063;-35
2023/08/25 04:49:57;;;;;;;19.75;15.40;;;18.00;99.90;;;;;;5059399;28;20048;-34
2023/08/25 04:52:23;;;;;;;20.20;15.27;;;18.00;99.90;;;;;;5052284;28;20539;-35
2023/08/25 04:54:49;;;;;;;16.55;12.23;;;18.00;99.90;;;;;;5063708;28;20060;-35
2023/08/25 04:57:15;;;;;;;19.27;12.98;;;18.00;99.90;;;;;;5055892;28;21047;-36
2023/08/25 04:59:40;;;;;;;19.83;15.02;;;18.00;99.90;;;;;;5051698;28;20080;-35
2023/08/25 05:02:06;;;;;;;20.90;14.80;;;18.00;99.90;;;;;;5059507;28;20464;-35
2023/08/25 05:04:32;;;;;;;23.25;16.48;;;18.00;99.90;;;;;;5058272;28;20087;-34
2023/08/25 05:06:58;;;;;;;26.73;15.55;;;18.00;99.90;;;;;;5060441;28;20076;-35
2023/08/25 05:09:23;;;;;;;16.17;11.70;;;18.10;99.90;;;;;;5062910;28;20087;-35
2023/08/25 05:11:49;;;;;;;21.63;14.27;;;18.10;99.90;;;;;;5060756;28;20052;-35
2023/08/25 05:14:14;;;;;;;20.60;13.63;;;18.10;99.90;;;;;;5051447;28;20053;-35
2023/08/25 05:16:40;;;;;;;23.75;15.00;;;18.20;99.90;;;;;;5053520;28;20604;-35
2023/08/25 05:19:06;;;;;;;25.85;16.42;;;18.20;99.90;;;;;;5053118;28;20688;-35
2023/08/25 05:21:32;;;;;;;22.30;15.85;;;18.30;99.90;;;;;;5050721;28;20153;-35
2023/08/25 05:24:18;;;;;;;21.42;13.90;;;18.30;99.90;;;;;;5057611;28;20879;-36
2023/08/25 05:26:44;;;;;;;21.35;14.98;;;18.40;99.90;;;;;;5057104;28;20048;-35
2023/08/25 05:29:10;;;;;;;23.90;15.48;;;18.50;99.90;;;;;;5054969;28;20159;-35
2023/08/25 05:31:35;;;;;;;21.58;14.40;;;18.50;99.90;;;;;;5055684;28;20051;-35
2023/08/25 05:34:02;;;;;;;19.25;13.45;;;18.60;99.90;;;;;;5057393;28;20044;-35
2023/08/25 05:36:27;;;;;;;22.75;14.80;;;18.60;99.90;;;;;;5043518;28;20045;-35
2023/08/25 05:38:54;;;;;;;19.98;14.10;;;18.70;99.90;;;;;;5063562;28;20044;-36
2023/08/25 05:41:19;;;;;;;22.13;15.23;;;18.80;99.90;;;;;;5058849;28;20048;-35
2023/08/25 05:43:45;;;;;;;22.83;14.43;;;18.90;99.90;;;;;;5055624;28;20102;-35
2023/08/25 05:46:10;;;;;;;22.10;16.60;;;19.00;99.90;;;;;;5063671;28;20131;-35
2023/08/25 05:48:36;;;;;;;21.65;15.10;;;19.00;99.90;;;;;;5057675;28;20049;-34
2023/08/25 05:51:02;;;;;;;20.30;14.13;;;19.10;99.90;;;;;;5063056;28;20044;-35
2023/08/25 05:53:28;;;;;;;21.10;14.52;;;19.20;99.90;;;;;;5049769;28;20053;-36
2023/08/25 05:55:53;;;;;;;20.75;14.02;;;19.20;99.90;;;;;;5045426;28;20709;-35
2023/08/25 05:58:19;;;;;;;21.50;14.65;;;19.30;99.90;;;;;;5054844;28;20053;-35
2023/08/25 06:00:45;;;;;;;24.83;14.77;;;19.40;99.90;;;;;;5046140;28;20175;-35
2023/08/25 06:03:10;;;;;;;22.08;14.85;;;19.40;99.90;;;;;;5057182;28;20052;-35
2023/08/25 06:05:36;;;;;;;23.58;15.32;;;19.40;99.90;;;;;;5046653;28;20499;-35
2023/08/25 06:08:01;;;;;;;22.80;15.77;;;19.50;99.90;;;;;;5053071;28;20394;-35
2023/08/25 06:10:27;;;;;;;22.05;15.45;;;19.50;99.90;;;;;;5047836;28;20053;-35
2023/08/25 06:12:53;;;;;;;22.77;14.73;;;19.50;99.90;;;;;;5045054;28;20052;-35
2023/08/25 06:15:18;;;;;;;22.25;15.02;;;19.50;99.90;;;;;;5055173;28;20204;-36
2023/08/25 06:17:44;;;;;;;18.38;14.02;;;19.50;99.90;;;;;;5041442;28;20044;-36
2023/08/25 06:20:12;;;;;;;21.85;15.23;;;19.50;99.90;;;;;;5055635;28;20052;-36
2023/08/25 06:22:38;;;;;;;25.67;17.33;;;19.50;99.90;;;;;;5052636;28;20101;-36
2023/08/25 06:25:04;;;;;;;25.92;17.63;;;19.40;99.90;;;;;;5063564;28;20056;-35
2023/08/25 06:27:31;;;;;;;28.98;18.25;;;19.40;99.90;;;;;;5061298;28;20058;-35
2023/08/25 06:29:56;;;;;;;28.38;17.63;;;19.30;99.90;;;;;;5062628;28;20048;-35
2023/08/25 06:32:23;;;;;;;29.33;17.73;;;19.20;99.90;;;;;;5058730;28;20494;-36
2023/08/25 06:34:51;;;;;;;29.17;17.65;;;19.20;99.90;;;;;;5064663;28;20052;-35
2023/08/25 06:37:17;;;;;;;30.02;18.42;;;19.10;99.90;;;;;;5065965;28;20124;-36
2023/08/25 06:39:45;;;;;;;28.45;18.25;;;19.10;99.90;;;;;;5061760;28;20551;-36
2023/08/25 06:42:11;;;;;;;26.92;17.83;;;19.00;99.90;;;;;;5052628;28;20447;-35
2023/08/25 06:44:37;;;;;;;26.35;16.88;;;19.00;99.90;;;;;;5063181;28;20102;-36
2023/08/25 06:47:03;;;;;;;26.52;17.38;;;19.10;99.90;;;;;;5064930;28;20072;-35
2023/08/25 06:49:28;;;;;;;28.33;18.05;;;19.10;99.90;;;;;;5055604;28;20566;-35
2023/08/25 06:51:54;;;;;;;28.75;19.80;;;19.20;99.90;;;;;;5057655;28;20125;-36
2023/08/25 06:54:21;;;;;;;23.50;15.82;;;19.30;99.90;;;;;;5063695;28;20044;-36
2023/08/25 06:56:47;;;;;;;21.17;13.15;;;19.30;99.90;;;;;;5061190;28;20083;-36
2023/08/25 06:59:14;;;;;;;29.73;17.52;;;19.40;99.90;;;;;;5063812;28;20505;-35
2023/08/25 07:01:40;;;;;;;24.05;14.82;;;19.50;99.90;;;;;;5063504;28;20053;-36
2023/08/25 07:04:06;;;;;;;25.65;17.10;;;19.60;99.90;;;;;;5054012;28;20617;-36
2023/08/25 07:06:31;;;;;;;23.50;15.20;;;19.60;99.90;;;;;;5057245;28;20505;-36
2023/08/25 07:08:57;;;;;;;27.38;17.33;;;19.60;99.90;;;;;;5064952;28;20052;-35
2023/08/25 07:11:26;;;;;;;19.83;13.65;;;19.70;99.90;;;;;;5064205;28;20049;-36
2023/08/25 07:13:52;;;;;;;26.67;16.98;;;19.70;99.90;;;;;;5057664;28;20060;-35
2023/08/25 07:16:17;;;;;;;24.05;16.33;;;19.80;99.90;;;;;;5064065;28;20029;-36
2023/08/25 07:18:43;;;;;;;23.35;15.48;;;19.90;99.90;;;;;;5062645;28;20044;-35
2023/08/25 07:21:10;;;;;;;24.60;17.00;;;20.00;99.90;;;;;;5065593;28;20518;-36
2023/08/25 07:23:36;;;;;;;25.17;16.55;;;20.10;99.90;;;;;;5060793;28;20474;-36
2023/08/25 07:26:01;;;;;;;22.67;16.42;;;20.20;99.90;;;;;;5063647;28;20052;-36
2023/08/25 07:28:27;;;;;;;23.80;16.58;;;20.30;99.90;;;;;;5047460;28;20049;-36
2023/08/25 07:30:53;;;;;;;23.50;16.02;;;20.40;99.90;;;;;;5068249;28;20082;-35
2023/08/25 07:33:19;;;;;;;21.38;14.45;;;20.50;99.90;;;;;;5060388;28;20040;-35
2023/08/25 07:35:46;;;;;;;19.30;12.68;;;20.60;99.90;;;;;;5061743;28;20087;-36
2023/08/25 07:38:12;;;;;;;17.15;12.38;;;20.80;99.90;;;;;;5057401;28;20478;-36
2023/08/25 07:40:38;;;;;;;15.20;9.45;;;21.00;99.90;;;;;;5049526;28;20080;-36
2023/08/25 07:43:04;;;;;;;11.10;8.23;;;21.10;99.90;;;;;;5045306;28;20471;-36
2023/08/25 07:45:30;;;;;;;11.60;8.23;;;21.20;99.90;;;;;;5062871;28;20048;-36
2023/08/25 07:47:59;;;;;;;15.27;7.72;;;21.30;99.90;;;;;;5065396;28;20044;-34
2023/08/25 07:50:26;;;;;;;13.05;8.25;;;21.30;99.90;;;;;;5060835;28;20048;-34
2023/08/25 07:52:52;;;;;;;11.27;7.13;;;21.30;99.90;;;;;;5063286;28;20044;-35
2023/08/25 07:55:18;;;;;;;13.43;8.52;;;21.40;99.90;;;;;;5037462;28;20070;-34
2023/08/25 07:57:46;;;;;;;6.20;4.70;;;21.50;99.90;;;;;;5048355;28;20053;-35
2023/08/25 08:00:15;;;;;;;10.98;7.63;;;21.50;99.90;;;;;;5049813;28;20110;-35
2023/08/25 08:02:42;;;;;;;11.73;8.10;;;21.60;99.90;;;;;;5055867;28;20156;-35
2023/08/25 08:05:08;;;;;;;12.65;7.65;;;21.60;99.90;;;;;;5049219;28;20124;-35
2023/08/25 08:07:34;;;;;;;8.43;6.07;;;21.60;99.90;;;;;;5052408;28;20225;-35
2023/08/25 08:10:00;;;;;;;11.27;7.28;;;21.70;99.90;;;;;;5052030;28;20044;-35
2023/08/25 08:12:25;;;;;;;10.45;5.38;;;21.70;99.90;;;;;;5061115;28;20041;-35
2023/08/25 08:14:51;;;;;;;7.10;4.75;;;21.70;99.90;;;;;;5054379;28;20060;-35
2023/08/25 08:17:18;;;;;;;8.68;6.28;;;21.80;99.90;;;;;;5063171;28;20053;-35
2023/08/25 08:19:44;;;;;;;8.77;5.65;;;21.80;99.90;;;;;;5063159;28;20060;-35
2023/08/25 08:22:10;;;;;;;7.53;5.20;;;21.80;99.90;;;;;;5063281;28;20063;-35
2023/08/25 08:24:36;;;;;;;10.60;6.15;;;21.90;99.90;;;;;;5065472;28;20105;-35
2023/08/25 08:27:02;;;;;;;10.65;7.00;;;21.90;99.90;;;;;;5066669;28;20044;-35
2023/08/25 08:29:28;;;;;;;8.63;5.55;;;21.80;99.90;;;;;;5069590;28;20052;-35
2023/08/25 08:31:57;;;;;;;17.02;9.70;;;21.80;99.90;;;;;;5059063;28;20525;-35
2023/08/25 08:34:22;;;;;;;9.70;5.43;;;21.80;99.90;;;;;;5065935;28;20087;-35
2023/08/25 08:36:48;;;;;;;9.48;6.28;;;21.80;99.90;;;;;;5062974;28;20072;-35
2023/08/25 08:39:15;;;;;;;11.30;7.15;;;21.90;99.90;;;;;;5056477;28;20052;-34
2023/08/25 08:41:41;;;;;;;11.05;6.50;;;21.80;99.90;;;;;;5048237;28;20178;-35
2023/08/25 08:44:10;;;;;;;11.60;8.00;;;21.80;99.90;;;;;;5048756;28;20052;-35
2023/08/25 08:46:38;;;;;;;13.80;9.13;;;21.80;99.90;;;;;;5046853;28;20060;-35
2023/08/25 08:49:04;;;;;;;10.65;6.53;;;21.80;99.90;;;;;;5055412;28;20509;-34
2023/08/25 08:51:30;;;;;;;8.85;5.50;;;21.80;99.90;;;;;;5061950;28;20098;-35
2023/08/25 08:53:57;;;;;;;11.95;7.63;;;21.80;99.90;;;;;;5059743;28;20060;-35
2023/08/25 08:56:23;;;;;;;17.20;9.82;;;21.80;99.90;;;;;;5062516;28;20565;-35
2023/08/25 08:58:49;;;;;;;13.98;8.43;;;21.80;99.90;;;;;;5062065;28;20122;-33
2023/08/25 09:01:16;;;;;;;14.65;9.43;;;21.70;99.90;;;;;;5057901;28;20048;-34
2023/08/25 09:03:43;;;;;;;12.95;8.35;;;21.70;99.90;;;;;;5050973;28;20486;-34
2023/08/25 09:06:09;;;;;;;16.30;9.85;;;21.70;99.90;;;;;;5055032;28;20040;-35
2023/08/25 09:08:35;;;;;;;12.50;7.72;;;21.60;99.90;;;;;;5052735;28;20113;-34
2023/08/25 09:11:04;;;;;;;12.18;8.05;;;21.60;99.90;;;;;;5056774;28;20486;-35
2023/08/25 09:13:33;;;;;;;13.73;9.35;;;21.60;99.90;;;;;;5053399;28;20048;-34
2023/08/25 09:16:00;;;;;;;14.07;9.10;;;21.60;99.90;;;;;;5035794;28;20057;-34
2023/08/25 09:18:34;;;;;;;11.63;8.00;;;21.60;99.90;;;;;;5053498;28;20698;-34
2023/08/25 09:21:03;;;;;;;14.95;10.18;;;21.60;99.90;;;;;;5055724;28;20557;-34
2023/08/25 09:23:29;;;;;;;12.32;8.52;;;21.60;99.90;;;;;;5048651;28;20869;-34
2023/08/25 09:25:56;;;;;;;14.57;9.63;;;21.60;99.90;;;;;;5049648;28;20106;-34
2023/08/25 09:28:27;;;;;;;10.68;7.60;;;21.70;99.90;;;;;;5037665;28;20175;-35
2023/08/25 09:30:52;;;;;;;8.55;6.05;;;21.80;99.90;;;;;;5056471;28;20390;-35
2023/08/25 09:33:18;;;;;;;10.45;6.78;;;21.90;99.90;;;;;;5057651;28;20062;-34
2023/08/25 09:35:44;;;;;;;14.77;9.93;;;22.10;99.90;;;;;;5056571;28;20505;-34
2023/08/25 09:38:22;;;;;;;15.00;8.85;;;22.30;99.90;;;;;;5056159;28;20052;-35
2023/08/25 09:40:48;;;;;;;13.38;9.00;;;22.40;99.90;;;;;;5056717;28;20775;-35
2023/08/25 09:43:14;;;;;;;12.63;7.18;;;22.50;99.90;;;;;;5053104;28;20049;-35
2023/08/25 09:45:40;;;;;;;10.77;6.93;;;22.60;99.90;;;;;;5063770;28;20421;-35
2023/08/25 09:48:13;;;;;;;17.20;10.23;;;22.60;99.90;;;;;;5061165;28;20048;-34
2023/08/25 09:50:40;;;;;;;17.63;12.35;;;22.60;99.90;;;;;;5061368;28;20518;-35
2023/08/25 09:53:07;;;;;;;17.73;11.35;;;22.50;99.90;;;;;;5052999;28;20455;-34
2023/08/25 09:55:37;;;;;;;20.65;11.75;;;22.40;99.90;;;;;;5042000;28;20122;-34
2023/08/25 09:58:07;;;;;;;15.13;11.02;;;22.40;99.90;;;;;;5059677;28;20406;-35
2023/08/25 10:00:39;;;;;;;15.70;10.85;;;22.30;99.90;;;;;;5062260;28;20126;-35
2023/08/25 10:03:10;;;;;;;17.35;12.40;;;22.30;99.90;;;;;;5065458;28;20052;-35
2023/08/25 10:05:37;;;;;;;17.90;10.60;;;22.30;99.90;;;;;;5063289;28;20067;-35
2023/08/25 10:08:04;;;;;;;16.90;11.23;;;22.30;99.90;;;;;;5058392;28;20052;-34
2023/08/25 10:10:33;;;;;;;13.85;10.43;;;22.40;99.90;;;;;;5056700;28;20063;-35
2023/08/25 10:13:03;;;;;;;13.50;9.77;;;22.50;99.90;;;;;;5056564;28;20055;-35
2023/08/25 10:15:30;;;;;;;14.90;9.38;;;22.60;99.90;;;;;;5050285;28;20060;-33
2023/08/25 10:18:03;;;;;;;11.32;7.90;;;22.80;99.90;;;;;;5052555;28;20063;-34
2023/08/25 10:20:32;;;;;;;;;;;23.00;99.90;;;;;;5052161;28;20056;-33
2023/08/25 10:22:59;;;;;;;15.52;10.63;;;23.00;99.90;;;;;;5062597;28;19948;-33
2023/08/25 10:25:29;;;;;;;15.88;9.48;;;23.10;99.90;;;;;;5060843;28;20735;-33
2023/08/25 10:27:57;;;;;;;17.10;11.30;;;22.90;99.90;;;;;;5055730;28;20045;-33
2023/08/25 10:30:24;;;;;;;12.90;7.85;;;22.80;99.90;;;;;;5061533;28;20049;-33
2023/08/25 10:33:09;;;;;;;15.70;10.43;;;22.70;99.90;;;;;;5060541;28;20056;-33
2023/08/25 10:35:44;;;;;;;12.18;7.85;;;22.60;99.90;;;;;;5050765;28;20057;-33
2023/08/25 10:38:19;;;;;;;15.93;9.98;;;22.50;99.90;;;;;;5042511;28;20621;-33
2023/08/25 10:40:53;;;;;;;17.38;11.07;;;22.60;99.90;;;;;;5049174;28;20381;-32
2023/08/25 10:43:32;;;;;;;13.30;9.13;;;22.60;99.90;;;;;;5053492;28;20537;-33
2023/08/25 10:46:01;;;;;;;15.68;9.73;;;22.70;99.90;;;;;;5031471;28;20056;-32
2023/08/25 10:48:27;;;;;;;13.27;8.43;;;22.70;99.90;;;;;;5050194;28;21425;-33
2023/08/25 10:51:04;;;;;;;16.88;10.20;;;22.60;99.90;;;;;;5042484;28;20041;-32
2023/08/25 10:53:41;;;;;;;13.60;9.60;;;22.60;99.90;;;;;;5052762;28;20488;-33
2023/08/25 10:56:27;;;;;;;15.88;10.80;;;22.50;99.90;;;;;;5056047;28;20068;-33
2023/08/25 10:59:07;;;;;;;16.33;10.43;;;22.60;99.90;;;;;;5054747;28;20126;-33
2023/08/25 11:01:42;;;;;;;19.35;11.57;;;22.60;99.90;;;;;;5054054;28;20486;-33
2023/08/25 11:04:29;;;;;;;13.88;9.27;;;22.60;99.90;;;;;;5054982;28;20115;-32
2023/08/25 11:06:59;;;;;;;15.45;8.55;;;22.50;99.90;;;;;;5037453;28;20052;-33
2023/08/25 11:09:24;;;;;;;15.88;10.15;;;22.40;99.90;;;;;;5041039;28;20067;-33
2023/08/25 11:12:07;;;;;;;17.13;11.10;;;22.40;99.90;;;;;;5053573;28;20498;-33
2023/08/25 11:14:37;;;;;;;17.05;10.68;;;22.30;99.90;;;;;;5047841;28;20126;-32
2023/08/25 11:17:08;;;;;;;13.18;8.45;;;22.30;99.90;;;;;;5059270;28;20535;-33
2023/08/25 11:19:39;;;;;;;13.52;8.70;;;22.30;99.90;;;;;;5054577;28;20059;-33
2023/08/25 11:22:08;;;;;;;17.35;11.95;;;22.30;99.90;;;;;;5061670;28;20075;-32
2023/08/25 11:24:33;;;;;;;15.00;10.13;;;22.30;99.90;;;;;;5044515;28;20410;-33
2023/08/25 11:27:05;;;;;;;12.55;7.43;;;22.30;99.90;;;;;;5057661;28;20048;-33
2023/08/25 11:29:31;;;;;;;14.47;10.17;;;22.30;99.90;;;;;;5059550;28;20492;-33
2023/08/25 11:31:57;;;;;;;20.08;12.88;;;22.30;99.90;;;;;;5048155;28;20071;-33
2023/08/25 11:34:22;;;;;;;15.57;9.38;;;22.30;99.90;;;;;;5051738;28;20498;-33
2023/08/25 11:36:48;;;;;;;17.70;10.88;;;22.20;99.90;;;;;;5059381;28;20048;-33
2023/08/25 11:39:18;;;;;;;17.55;12.10;;;22.20;99.90;;;;;;5057839;28;20056;-33
2023/08/25 11:41:45;;;;;;;16.45;10.15;;;22.20;99.90;;;;;;5060984;28;20131;-33
2023/08/25 11:44:12;;;;;;;16.30;11.55;;;22.30;99.90;;;;;;5055613;28;20148;-33
2023/08/25 11:46:38;;;;;;;11.70;9.02;;;22.20;99.90;;;;;;5040480;28;20075;-33
2023/08/25 11:49:06;;;;;;;14.75;10.52;;;22.20;99.90;;;;;;5048127;28;20044;-33
2023/08/25 11:51:35;;;;;;;14.25;9.60;;;22.30;99.90;;;;;;5075279;28;20813;-33
2023/08/25 11:54:01;;;;;;;14.23;9.07;;;22.30;99.90;;;;;;5055568;28;20093;-33
2023/08/25 11:56:27;;;;;;;12.43;8.55;;;22.30;99.90;;;;;;5056329;28;20045;-33
2023/08/25 11:58:53;;;;;;;11.85;7.15;;;22.30;99.90;;;;;;5056459;28;20063;-33
2023/08/25 12:01:19;;;;;;;9.25;7.03;;;22.40;99.90;;;;;;5046919;28;20881;-33
2023/08/25 12:03:46;;;;;;;11.95;6.85;;;22.40;99.90;;;;;;5040227;28;20065;-33
2023/08/25 12:06:13;;;;;;;9.68;7.72;;;22.40;99.90;;;;;;5058485;28;20056;-33
2023/08/25 12:08:40;;;;;;;11.45;6.85;;;22.40;99.90;;;;;;5060184;28;20048;-33
2023/08/25 12:11:08;;;;;;;11.73;8.27;;;22.40;99.90;;;;;;5056866;28;20176;-33
2023/08/25 12:13:35;;;;;;;10.68;6.47;;;22.40;99.90;;;;;;5052346;28;20037;-33
2023/08/25 12:16:04;;;;;;;12.23;8.30;;;22.40;99.90;;;;;;5039684;28;20060;-33
2023/08/25 12:18:40;;;;;;;8.55;6.40;;;22.40;99.90;;;;;;5055254;28;20044;-33
2023/08/25 12:21:06;;;;;;;8.68;6.78;;;22.40;99.90;;;;;;5052574;28;20126;-33
2023/08/25 12:23:40;;;;;;;11.18;6.95;;;22.40;99.90;;;;;;5042848;28;20056;-33
2023/08/25 12:26:11;;;;;;;9.27;6.43;;;22.50;99.90;;;;;;5056115;28;20051;-33
2023/08/25 12:28:38;;;;;;;8.85;6.43;;;22.50;99.90;;;;;;5060148;28;20150;-33
2023/08/25 12:31:04;;;;;;;9.57;6.63;;;22.50;99.90;;;;;;5058882;28;20044;-33
2023/08/25 12:33:30;;;;;;;9.15;6.53;;;22.50;99.90;;;;;;5063052;28;20110;-33